Time;durP1;ratioP1;P1;durP2;ratioP2;P2;SDS_P1;SDS_P2;PMS_P1;PMS_P2;Temp;Humidity;BMP_temperature;BMP_pressure;BME280_temperature;BME280_humidity;BME280_pressure;Samples;Min_cycle;Max_cycle;Signal;HPM_P1;HPM_P2
2023/01/26 00:01:21;;;;;;;35.67;24.02;;;;;;;15.98;45.18;93542.56;4936283;28;20038;-93
2023/01/26 00:03:46;;;;;;;33.65;22.63;;;;;;;15.98;44.40;93547.28;4941488;28;20070;-93
2023/01/26 00:06:14;;;;;;;33.75;23.70;;;;;;;15.94;44.83;93544.03;4940474;28;20603;-92
2023/01/26 00:08:41;;;;;;;37.97;23.85;;;;;;;15.98;44.61;93537.13;4941271;28;20042;-93
2023/01/26 00:11:07;;;;;;;36.45;23.48;;;;;;;15.96;44.69;93530.66;4953057;28;20043;-93
2023/01/26 00:13:33;;;;;;;35.65;22.98;;;;;;;15.95;44.94;93531.91;4939718;28;20054;-93
2023/01/26 00:15:59;;;;;;;36.28;24.02;;;;;;;15.95;44.74;93526.44;4933258;28;20126;-93
2023/01/26 00:18:24;;;;;;;33.45;23.23;;;;;;;15.96;44.79;93519.75;4937171;28;20115;-92
2023/01/26 00:20:57;;;;;;;29.67;21.67;;;;;;;15.96;44.40;93508.84;4923502;28;20277;-93
2023/01/26 00:23:23;;;;;;;34.30;21.77;;;;;;;15.98;44.74;93509.84;4940581;28;20057;-93
2023/01/26 00:25:48;;;;;;;29.50;21.17;;;;;;;15.99;44.64;93507.88;4937506;28;20051;-93
2023/01/26 00:28:14;;;;;;;30.20;21.92;;;;;;;15.91;44.74;93513.06;4935046;28;20039;-92
2023/01/26 00:30:39;;;;;;;29.90;20.98;;;;;;;15.96;44.61;93509.59;4955994;28;20046;-93
2023/01/26 00:33:04;;;;;;;31.83;21.85;;;;;;;15.94;44.74;93505.88;4928924;28;20047;-93
2023/01/26 00:35:30;;;;;;;30.70;20.90;;;;;;;15.96;44.68;93508.84;4940091;28;20105;-93
2023/01/26 00:37:55;;;;;;;35.17;22.95;;;;;;;15.96;44.74;93501.44;4956712;28;20200;-93
2023/01/26 00:40:22;;;;;;;29.70;21.25;;;;;;;15.93;44.59;93502.41;4936716;28;20043;-92
2023/01/26 00:42:47;;;;;;;32.20;21.58;;;;;;;15.88;44.90;93508.59;4944006;28;20053;-93
2023/01/26 00:45:15;;;;;;;32.00;20.45;;;;;;;15.89;45.07;93506.59;4938929;28;20042;-93
2023/01/26 00:47:43;;;;;;;29.95;20.58;;;;;;;15.95;44.73;93496.47;4942418;28;20042;-92
2023/01/26 00:50:09;;;;;;;27.92;19.13;;;;;;;16.02;44.45;93502.16;4940520;28;20418;-92
2023/01/26 00:52:37;;;;;;;27.08;18.50;;;;;;;15.98;44.41;93492.75;4932988;28;20043;-92
2023/01/26 00:55:02;;;;;;;33.28;21.27;;;;;;;15.93;44.50;93488.78;4947061;28;20057;-93
2023/01/26 00:57:28;;;;;;;32.28;20.40;;;;;;;15.90;44.90;93499.91;4955784;28;20046;-94
2023/01/26 00:59:53;;;;;;;27.88;19.83;;;;;;;15.91;44.96;93498.69;4932457;28;20046;-93
2023/01/26 01:02:19;;;;;;;31.70;19.98;;;;;;;15.97;44.69;93499.44;4962148;28;20125;-92
2023/01/26 01:04:44;;;;;;;28.27;19.42;;;;;;;15.92;44.87;93498.19;4934210;28;20047;-92
2023/01/26 01:07:10;;;;;;;24.88;18.88;;;;;;;15.98;44.66;93498.22;4941899;28;20039;-93
2023/01/26 01:09:35;;;;;;;30.75;20.83;;;;;;;15.95;44.82;93491.75;4953157;28;20038;-93
2023/01/26 01:12:01;;;;;;;28.13;18.80;;;;;;;15.97;44.19;93486.56;4940312;28;20042;-93
2023/01/26 01:14:26;;;;;;;29.30;19.58;;;;;;;15.90;44.76;93484.31;4956261;28;20053;-93
2023/01/26 01:16:52;;;;;;;26.13;19.05;;;;;;;15.90;44.51;93491.72;4972833;28;20075;-92
2023/01/26 01:19:17;;;;;;;30.50;19.83;;;;;;;15.87;44.65;93496.19;4958019;28;20132;-93
2023/01/26 01:21:45;;;;;;;27.27;17.83;;;;;;;16.01;44.39;93487.06;4940298;28;20035;-93
2023/01/26 01:24:11;;;;;;;27.60;17.75;;;;;;;15.93;44.62;93488.03;4959161;28;20065;-93
2023/01/26 01:26:36;;;;;;;26.02;17.52;;;;;;;15.92;44.74;93475.63;4959634;28;20557;-93
2023/01/26 01:29:03;;;;;;;26.63;18.48;;;;;;;15.93;44.33;93485.31;4956291;28;20074;-92
2023/01/26 01:31:28;;;;;;;25.88;17.95;;;;;;;15.88;44.74;93473.16;4939724;28;20035;-93
2023/01/26 01:33:55;;;;;;;30.58;18.63;;;;;;;15.93;44.67;93485.31;4938522;28;20042;-93
2023/01/26 01:36:21;;;;;;;25.92;16.45;;;;;;;16.01;44.69;93489.03;4924806;28;20038;-92
2023/01/26 01:38:47;;;;;;;24.67;16.98;;;;;;;15.97;44.68;93481.09;4941744;28;20053;-93
2023/01/26 01:41:13;;;;;;;26.48;18.42;;;;;;;15.95;44.39;93478.13;4943420;28;20046;-93
2023/01/26 01:43:38;;;;;;;28.40;18.35;;;;;;;15.94;44.57;93484.06;4928753;28;20055;-93
2023/01/26 01:46:11;;;;;;;28.05;18.45;;;;;;;15.97;44.65;93483.09;4946174;28;20039;-94
2023/01/26 01:48:55;;;;;;;25.45;17.55;;;;;;;15.94;44.38;93493.00;4961921;28;20449;-93
2023/01/26 01:51:29;;;;;;;23.38;16.50;;;;;;;15.96;44.74;93487.78;4943660;28;20038;-93
2023/01/26 01:53:55;;;;;;;22.25;16.73;;;;;;;15.91;44.76;93485.03;4927525;28;20097;-93
2023/01/26 01:56:22;;;;;;;25.70;16.45;;;;;;;15.91;44.42;93482.31;4939618;28;20072;-92
2023/01/26 01:58:49;;;;;;;21.13;16.42;;;;;;;15.94;44.37;93478.63;4939751;28;20034;-94
2023/01/26 02:01:14;;;;;;;22.58;15.80;;;;;;;15.93;44.36;93477.88;4946162;28;20070;-92
2023/01/26 02:03:41;;;;;;;25.05;16.33;;;;;;;15.87;44.45;93482.56;4945760;28;20043;-93
2023/01/26 02:06:07;;;;;;;24.77;16.42;;;;;;;15.90;44.71;93476.13;4939359;28;20114;-92
2023/01/26 02:08:52;;;;;;;21.58;14.60;;;;;;;15.95;44.72;93475.41;4953043;28;20042;-93
2023/01/26 02:11:21;;;;;;;24.35;16.23;;;;;;;15.93;44.50;93466.97;4974178;28;20042;-93
2023/01/26 02:13:47;;;;;;;18.48;14.00;;;;;;;15.95;44.61;93466.47;4955745;28;20624;-93
2023/01/26 02:16:13;;;;;;;24.95;15.60;;;;;;;15.93;44.56;93464.25;4955497;28;20031;-92
2023/01/26 02:18:38;;;;;;;22.40;15.75;;;;;;;15.93;44.59;93468.94;4942755;28;20152;-93
2023/01/26 02:21:07;;;;;;;24.27;15.80;;;;;;;16.02;44.15;93457.81;4943175;28;20034;-93
2023/01/26 02:23:32;;;;;;;23.05;15.93;;;;;;;15.97;44.20;93469.44;4930720;28;20078;-93
2023/01/26 02:26:03;;;;;;;21.35;15.40;;;;;;;15.92;44.60;93465.47;4956138;28;20062;-93
2023/01/26 02:28:28;;;;;;;20.80;14.82;;;;;;;15.96;44.52;93455.06;4965858;28;20097;-92
2023/01/26 02:30:54;;;;;;;22.42;15.07;;;;;;;15.89;44.44;93452.81;4942131;28;20038;-93
2023/01/26 02:33:24;;;;;;;24.45;15.25;;;;;;;15.93;44.57;93438.97;4942879;28;20577;-92
2023/01/26 02:35:49;;;;;;;20.70;14.50;;;;;;;15.95;44.68;93437.22;4943388;28;20456;-93
2023/01/26 02:38:15;;;;;;;20.15;14.27;;;;;;;15.89;44.42;93439.19;4942324;28;20038;-92
2023/01/26 02:41:11;;;;;;;23.00;15.45;;;;;;;15.92;44.43;93437.47;4943051;28;20046;-93
2023/01/26 02:43:36;;;;;;;23.80;15.32;;;;;;;15.90;44.57;93426.31;4958123;28;20073;-93
2023/01/26 02:46:02;;;;;;;18.40;13.43;;;;;;;15.98;44.55;93430.06;4958743;28;20046;-92
2023/01/26 02:51:11;;;;;;;22.38;14.85;;;;;;;15.90;44.80;93426.31;4963147;28;20688;-93
2023/01/26 02:53:37;;;;;;;20.30;13.93;;;;;;;15.91;44.83;93422.34;4946124;28;20062;-92
2023/01/26 02:56:02;;;;;;;20.33;14.18;;;;;;;15.94;44.23;93426.81;4923052;28;20051;-93
2023/01/26 02:58:28;;;;;;;20.60;14.52;;;;;;;15.89;44.78;93417.38;4932469;28;20044;-93
2023/01/26 03:00:53;;;;;;;19.58;13.95;;;;;;;15.91;44.59;93409.47;4942627;28;20089;-93
2023/01/26 03:03:22;;;;;;;18.70;13.82;;;;;;;15.96;44.44;93422.38;4968808;28;20034;-93
2023/01/26 03:05:48;;;;;;;18.83;13.43;;;;;;;15.93;44.39;93411.69;4942893;28;20082;-92
2023/01/26 03:08:13;;;;;;;19.50;13.98;;;;;;;15.94;44.48;93408.47;4936838;28;20035;-93
2023/01/26 03:10:39;;;;;;;17.02;12.07;;;;;;;15.96;44.51;93416.91;4944624;28;20038;-92
2023/01/26 03:13:04;;;;;;;17.92;12.93;;;;;;;15.87;44.70;93419.13;4941480;28;20397;-92
2023/01/26 03:15:41;;;;;;;19.55;13.02;;;;;;;15.90;44.69;93423.59;4935379;29;20040;-92
2023/01/26 03:29:06;;;;;;;16.20;12.10;;;;;;;15.96;44.11;93413.44;4957186;28;20050;-92
2023/01/26 03:31:31;;;;;;;17.58;12.23;;;;;;;15.97;43.90;93402.03;4938832;28;20035;-93
2023/01/26 03:33:57;;;;;;;18.52;11.93;;;;;;;15.94;44.34;93405.75;4938744;28;20050;-92
2023/01/26 03:36:22;;;;;;;19.33;13.00;;;;;;;15.86;44.87;93409.44;4939037;28;20462;-93
2023/01/26 03:38:48;;;;;;;19.30;12.73;;;;;;;15.92;44.57;93416.41;4939366;28;20457;-93
2023/01/26 03:57:38;;;;;;;16.27;12.10;;;;;;;15.96;44.26;93395.09;4957604;28;20459;-92
2023/01/26 04:00:05;;;;;;;15.65;11.05;;;;;;;15.93;44.07;93387.16;4954082;28;20047;-92
2023/01/26 04:10:50;;;;;;;17.05;12.05;;;;;;;15.96;44.37;93386.91;4956753;28;20098;-93
2023/01/26 04:21:33;;;;;;;17.70;11.45;;;;;;;15.83;44.69;93388.63;4962384;28;20045;-93
2023/01/26 04:23:59;;;;;;;14.50;11.20;;;;;;;15.91;44.22;93390.38;4938347;28;20097;-92
2023/01/26 04:26:33;;;;;;;14.77;11.20;;;;;;;15.91;44.57;93386.91;4938278;28;20371;-93
2023/01/26 04:29:01;;;;;;;14.85;10.77;;;;;;;15.92;44.62;93386.41;4954370;28;20043;-93
2023/01/26 04:31:26;;;;;;;15.07;9.90;;;;;;;15.91;44.82;93390.38;4953599;28;20047;-93
2023/01/26 04:33:52;;;;;;;15.25;10.88;;;;;;;15.95;44.20;93387.41;4937769;28;20042;-93
2023/01/26 04:36:17;;;;;;;12.15;9.98;;;;;;;15.93;44.34;93379.72;4933510;28;20513;-93
2023/01/26 04:38:43;;;;;;;14.82;10.60;;;;;;;15.89;44.58;93381.94;4937763;28;20043;-93
2023/01/26 04:41:08;;;;;;;13.15;10.02;;;;;;;15.90;44.79;93382.69;4922229;28;20050;-93
2023/01/26 04:43:34;;;;;;;14.73;11.00;;;;;;;15.85;44.60;93377.97;4925523;28;20415;-93
2023/01/26 04:46:00;;;;;;;17.02;10.40;;;;;;;15.90;44.43;93369.06;4941883;28;20439;-93
2023/01/26 04:48:27;;;;;;;12.82;9.85;;;;;;;15.87;44.16;93378.97;4973043;28;20035;-92
2023/01/26 04:50:54;;;;;;;13.57;10.48;;;;;;;15.93;44.57;93368.81;4941516;28;20125;-92
2023/01/26 04:53:19;;;;;;;13.20;10.02;;;;;;;15.95;44.58;93371.06;4940919;28;20591;-93
2023/01/26 04:55:45;;;;;;;11.95;9.40;;;;;;;15.94;44.21;93370.31;4945094;28;20034;-94
2023/01/26 04:58:11;;;;;;;14.57;10.35;;;;;;;15.87;44.36;93365.34;4944163;28;20251;-93
2023/01/26 05:00:36;;;;;;;13.50;9.85;;;;;;;15.90;44.63;93363.59;4940413;28;20050;-92
2023/01/26 05:03:03;;;;;;;13.80;9.30;;;;;;;15.97;44.15;93366.59;4960826;28;20069;-92
2023/01/26 05:05:28;;;;;;;13.85;9.93;;;;;;;15.94;44.14;93361.38;4944332;28;20045;-92
2023/01/26 05:07:53;;;;;;;13.02;9.48;;;;;;;15.90;44.30;93358.91;4944391;28;20030;-93
2023/01/26 05:10:19;;;;;;;12.57;9.40;;;;;;;15.84;44.59;93358.16;4944366;28;20045;-93
2023/01/26 05:12:45;;;;;;;12.10;9.15;;;;;;;15.92;44.14;93350.97;4960781;28;20335;-92
2023/01/26 05:15:11;;;;;;;11.00;8.40;;;;;;;15.95;43.86;93355.44;4936244;28;20083;-92
2023/01/26 05:17:36;;;;;;;14.05;9.68;;;;;;;15.86;44.74;93355.69;4927065;28;20143;-93
2023/01/26 05:20:02;;;;;;;13.07;9.32;;;;;;;15.90;44.59;93358.91;4944785;28;20567;-93
2023/01/26 05:22:28;;;;;;;11.20;8.23;;;;;;;16.00;44.15;93364.88;4936504;28;20381;-93
2023/01/26 05:24:53;;;;;;;10.23;7.40;;;;;;;16.06;43.69;93357.41;4941198;28;20549;-93
2023/01/26 05:27:21;;;;;;;12.25;8.63;;;;;;;15.96;44.08;93356.19;4932596;28;20473;-92
2023/01/26 05:29:49;;;;;;;14.45;8.98;;;;;;;15.82;44.49;93360.63;4960133;28;20046;-92
2023/01/26 05:32:14;;;;;;;22.25;9.07;;;;;;;15.80;43.93;93354.94;4945083;28;20090;-92
2023/01/26 05:34:40;;;;;;;17.50;8.50;;;;;;;15.88;44.20;93344.28;4942422;28;20055;-88
2023/01/26 05:37:05;;;;;;;18.00;8.70;;;;;;;15.98;44.58;93350.97;4970192;28;20046;-91
2023/01/26 05:39:31;;;;;;;11.35;8.45;;;;;;;16.11;44.29;93349.22;4943152;28;20132;-93
2023/01/26 05:42:03;;;;;;;18.10;12.48;;;;;;;16.11;44.57;93356.66;4949820;28;20169;-94
2023/01/26 05:44:29;;;;;;;66.97;49.28;;;;;;;16.09;44.19;93353.69;4944534;28;20042;-91
2023/01/26 05:46:54;;;;;;;30.48;18.23;;;;;;;16.13;44.04;93348.00;4955105;28;20112;-90
2023/01/26 05:49:20;;;;;;;22.52;13.80;;;;;;;16.04;43.95;93359.88;4977079;28;20052;-92
2023/01/26 05:51:45;;;;;;;21.52;14.48;;;;;;;16.02;44.08;93359.66;4961530;28;20062;-94
2023/01/26 05:54:11;;;;;;;83.18;39.67;;;;;;;16.11;43.86;93360.13;4941038;28;20042;-92
2023/01/26 05:56:36;;;;;;;114.15;53.13;;;;;;;16.08;44.11;93358.41;4943674;28;20038;-93
2023/01/26 05:59:02;;;;;;;88.40;33.67;;;;;;;16.07;43.98;93356.16;4937808;28;20035;-92
2023/01/26 06:01:27;;;;;;;46.10;22.13;;;;;;;15.96;44.24;93356.19;4941614;28;20034;-92
2023/01/26 06:03:53;;;;;;;81.65;28.00;;;;;;;15.89;42.23;93357.41;4941396;28;20046;-91
2023/01/26 06:06:19;;;;;;;102.10;27.92;;;;;;;15.71;39.22;93358.66;4955055;28;20066;-93
2023/01/26 06:08:44;;;;;;;70.45;18.08;;;;;;;15.57;37.29;93356.16;4956132;28;20149;-92
2023/01/26 06:11:10;;;;;;;94.22;18.52;;;;;;;15.62;37.60;93358.13;4957456;28;20034;-92
2023/01/26 06:13:35;;;;;;;109.05;19.73;;;;;;;15.43;37.29;93352.38;4937460;28;20506;-93
2023/01/26 06:16:01;;;;;;;96.63;20.73;;;;;;;15.53;37.85;93352.91;4956672;28;20039;-90
2023/01/26 06:18:26;;;;;;;96.57;25.40;;;;;;;15.65;38.83;93362.59;4936086;28;20054;-91
2023/01/26 06:20:52;;;;;;;98.60;29.73;;;;;;;15.64;39.83;93350.22;4943733;28;20046;-92
2023/01/26 06:23:17;;;;;;;87.72;31.02;;;;;;;15.71;41.36;93357.91;4931660;28;20049;-94
2023/01/26 06:25:52;;;;;;;103.20;35.92;;;;;;;15.79;42.26;93355.44;4959096;28;20176;-93
2023/01/26 06:28:21;;;;;;;106.85;33.50;;;;;;;15.82;41.94;93357.16;4948220;28;20050;-92
2023/01/26 06:30:46;;;;;;;104.63;35.92;;;;;;;15.79;42.22;93348.00;4939325;28;20058;-90
2023/01/26 06:33:12;;;;;;;93.40;32.83;;;;;;;15.78;42.46;93354.69;4954778;28;20039;-89
2023/01/26 06:35:38;;;;;;;82.43;32.40;;;;;;;15.79;42.33;93367.09;4936299;28;20050;-90
2023/01/26 06:38:03;;;;;;;84.70;33.30;;;;;;;15.73;42.51;93345.28;4939311;28;20046;-89
2023/01/26 06:40:29;;;;;;;82.28;36.67;;;;;;;15.75;42.48;93348.25;4944846;28;20057;-89
2023/01/26 06:42:54;;;;;;;145.38;39.38;;;;;;;15.73;41.57;93358.91;4956926;28;20038;-89
2023/01/26 06:45:21;;;;;;;90.90;37.10;;;;;;;15.83;41.68;93361.38;4940836;28;20038;-89
2023/01/26 06:47:47;;;;;;;134.43;48.92;;;;;;;15.85;41.77;93367.06;4947367;28;20031;-90
2023/01/26 06:50:19;;;;;;;184.75;75.75;;;;;;;15.93;42.07;93360.66;4946617;28;20035;-91
2023/01/26 06:52:54;;;;;;;154.90;84.28;;;;;;;15.90;42.22;93352.72;4940760;28;20040;-89
2023/01/26 06:55:24;;;;;;;175.45;77.10;;;;;;;15.87;42.25;93356.41;4941287;28;20062;-92
2023/01/26 06:57:50;;;;;;;198.50;91.32;;;;;;;15.88;42.40;93366.09;4953580;28;20062;-91
2023/01/26 07:00:16;;;;;;;222.80;86.85;;;;;;;15.94;41.98;93353.94;4935106;28;20057;-92
2023/01/26 07:02:44;;;;;;;171.15;78.93;;;;;;;15.97;41.97;93358.41;4952335;28;20034;-90
2023/01/26 07:05:10;;;;;;;185.50;86.70;;;;;;;16.00;42.04;93360.16;4951661;28;20038;-91
2023/01/26 07:07:35;;;;;;;155.02;70.28;;;;;;;16.09;42.15;93356.41;4956797;28;20054;-92
2023/01/26 07:10:02;;;;;;;174.73;80.78;;;;;;;16.11;41.81;93353.94;4943123;28;20041;-91
2023/01/26 07:12:38;;;;;;;363.27;263.20;;;;;;;16.05;42.39;93356.66;4942176;28;20038;-89
2023/01/26 07:15:07;;;;;;;161.40;78.05;;;;;;;16.03;42.22;93347.50;4950200;28;20046;-92
2023/01/26 07:17:32;;;;;;;207.82;108.93;;;;;;;16.02;41.83;93354.94;4943405;28;20039;-93
2023/01/26 07:19:58;;;;;;;149.20;75.63;;;;;;;16.08;42.06;93354.94;4961343;28;20041;-92
2023/01/26 07:22:24;;;;;;;135.20;70.45;;;;;;;16.16;42.13;93342.28;4958420;28;20054;-90
2023/01/26 07:24:52;;;;;;;126.93;67.63;;;;;;;16.05;42.27;93343.03;4956740;28;20031;-92
2023/01/26 07:27:17;;;;;;;136.15;66.30;;;;;;;16.12;42.45;93347.25;4951468;28;20056;-89
2023/01/26 07:29:43;;;;;;;125.50;58.50;;;;;;;16.15;42.06;93342.78;4957336;28;20046;-90
2023/01/26 07:32:08;;;;;;;126.80;64.45;;;;;;;16.14;42.38;93341.28;4955218;28;20035;-91
2023/01/26 07:34:35;;;;;;;131.85;54.70;;;;;;;16.08;42.27;93338.56;4956359;28;20109;-89
2023/01/26 07:37:00;;;;;;;166.20;78.50;;;;;;;16.09;42.47;93342.78;4941011;28;20031;-91
2023/01/26 07:39:32;;;;;;;167.38;80.78;;;;;;;16.08;42.54;93352.94;4974437;28;20042;-91
2023/01/26 07:41:58;;;;;;;157.82;74.80;;;;;;;16.15;42.39;93342.78;4899831;29;20051;-92
2023/01/26 07:44:24;;;;;;;143.68;68.80;;;;;;;16.15;42.44;93331.88;4921767;28;20079;-91
2023/01/26 07:46:49;;;;;;;137.80;65.90;;;;;;;16.14;42.43;93344.78;4918755;29;20055;-91
2023/01/26 07:49:15;;;;;;;139.50;69.13;;;;;;;16.12;42.63;93341.78;4921596;28;20044;-92
2023/01/26 07:51:40;;;;;;;142.00;68.80;;;;;;;16.16;42.35;93330.63;4917669;29;20055;-92
2023/01/26 07:54:07;;;;;;;152.02;67.95;;;;;;;16.14;42.42;93344.78;4935137;28;20039;-91
2023/01/26 07:56:33;;;;;;;133.77;63.90;;;;;;;16.03;41.81;93344.75;4917553;28;20617;-92
2023/01/26 07:58:59;;;;;;;124.57;62.35;;;;;;;16.09;41.77;93338.06;4887083;29;20052;-91
2023/01/26 08:01:24;;;;;;;139.88;58.65;;;;;;;16.07;41.81;93332.38;4930794;29;20055;-92
2023/01/26 08:03:50;;;;;;;153.07;76.00;;;;;;;16.08;41.94;93338.56;4912967;29;20773;-90
2023/01/26 08:06:17;;;;;;;143.93;63.50;;;;;;;16.01;41.75;93339.09;4919704;28;20134;-90
2023/01/26 08:08:43;;;;;;;141.35;64.80;;;;;;;16.08;41.96;93338.56;4913588;29;20075;-91
2023/01/26 08:11:09;;;;;;;144.60;62.53;;;;;;;15.92;40.54;93337.34;4910027;29;20048;-92
2023/01/26 08:13:34;;;;;;;120.78;51.92;;;;;;;15.90;40.15;93333.63;4943201;28;20050;-93
2023/01/26 08:16:01;;;;;;;138.52;55.60;;;;;;;15.98;40.83;93340.06;4946019;28;20046;-92
2023/01/26 08:18:27;;;;;;;117.78;50.17;;;;;;;15.96;40.60;93340.56;4944607;28;20038;-92
2023/01/26 08:20:53;;;;;;;105.57;46.08;;;;;;;15.89;39.79;93337.59;4962962;28;20043;-92
2023/01/26 08:23:18;;;;;;;116.78;50.13;;;;;;;15.94;40.13;93342.31;4942411;28;20050;-92
2023/01/26 08:25:45;;;;;;;136.95;55.40;;;;;;;16.09;40.81;93343.53;4941582;28;20078;-93
2023/01/26 08:28:11;;;;;;;137.65;60.88;;;;;;;16.04;41.26;93338.06;4929350;28;20039;-93
2023/01/26 08:30:37;;;;;;;171.98;78.55;;;;;;;16.07;41.52;93342.53;4953474;28;20132;-92
2023/01/26 08:33:03;;;;;;;224.43;98.90;;;;;;;16.04;41.69;93336.09;4946794;28;20497;-91
2023/01/26 08:35:29;;;;;;;194.20;87.30;;;;;;;16.05;41.35;93337.56;4956031;28;20150;-92
2023/01/26 08:37:55;;;;;;;178.15;85.68;;;;;;;15.99;41.69;93341.56;4948289;28;20058;-92
2023/01/26 08:40:20;;;;;;;182.35;81.18;;;;;;;16.03;41.58;93329.16;4959408;28;20042;-91
2023/01/26 08:42:47;;;;;;;170.98;79.45;;;;;;;16.08;41.79;93327.66;4973637;28;20042;-92
2023/01/26 08:45:13;;;;;;;149.65;68.40;;;;;;;15.97;42.11;93325.69;4962392;28;20063;-93
2023/01/26 08:47:38;;;;;;;136.68;69.15;;;;;;;15.99;41.91;93330.66;4940901;28;20066;-91
2023/01/26 08:50:06;;;;;;;146.57;73.10;;;;;;;16.00;42.04;93324.72;4940952;28;20049;-95
2023/01/26 08:52:34;;;;;;;131.43;67.65;;;;;;;15.99;41.78;93325.94;4956937;28;20047;-92
2023/01/26 08:55:01;;;;;;;146.10;70.15;;;;;;;16.02;41.73;93313.31;4923437;28;20349;-89
2023/01/26 08:57:26;;;;;;;149.88;69.55;;;;;;;16.09;42.50;93315.50;4921856;29;20130;-91
2023/01/26 08:59:52;;;;;;;155.45;78.38;;;;;;;16.01;41.95;93309.84;4923378;28;20050;-90
2023/01/26 09:02:17;;;;;;;127.60;62.40;;;;;;;16.02;42.14;93313.31;4929478;29;20054;-92
2023/01/26 09:04:44;;;;;;;105.00;60.50;;;;;;;16.00;41.88;93311.09;4916864;28;20058;-93
2023/01/26 09:07:09;;;;;;;114.57;58.75;;;;;;;16.01;42.24;93317.28;4928232;29;20054;-90
2023/01/26 09:09:35;;;;;;;120.90;61.72;;;;;;;16.02;42.36;93316.03;4908013;28;20065;-91
2023/01/26 09:12:00;;;;;;;200.02;101.38;;;;;;;16.04;42.26;93316.25;4924729;29;20090;-91
2023/01/26 09:14:27;;;;;;;144.38;74.45;;;;;;;16.06;42.25;93313.78;4924251;28;20039;-91
2023/01/26 09:16:55;;;;;;;156.35;80.88;;;;;;;16.12;42.29;93328.16;4925141;29;20047;-91
2023/01/26 09:19:20;;;;;;;131.00;71.32;;;;;;;16.15;42.21;93324.44;4925983;29;20148;-92
2023/01/26 09:21:46;;;;;;;121.63;60.67;;;;;;;16.10;41.99;93325.94;4942133;29;20044;-91
2023/01/26 09:24:13;;;;;;;138.20;69.45;;;;;;;16.13;42.44;93316.00;4923819;29;20118;-91
2023/01/26 09:26:40;;;;;;;134.60;68.40;;;;;;;16.15;42.29;93321.72;4938957;29;20554;-92
2023/01/26 09:29:05;;;;;;;218.57;106.90;;;;;;;16.18;42.62;93317.25;4940284;28;20046;-92
2023/01/26 09:31:32;;;;;;;186.70;93.88;;;;;;;16.19;42.12;93322.22;4920851;29;20051;-91
2023/01/26 09:34:02;;;;;;;167.27;88.68;;;;;;;16.17;42.22;93321.97;4908652;29;20059;-92
2023/01/26 09:36:28;;;;;;;304.25;157.77;;;;;;;16.17;42.36;93313.03;4917133;28;20194;-90
2023/01/26 09:38:53;;;;;;;271.58;135.55;;;;;;;16.17;42.32;93313.03;4900705;29;20051;-91
2023/01/26 09:41:42;;;;;;;215.25;106.18;;;;;;;16.14;42.19;93317.50;4911945;29;20040;-92
2023/01/26 09:44:23;;;;;;;196.10;94.45;;;;;;;16.21;42.46;93313.53;4937622;28;20118;-89
2023/01/26 09:47:01;;;;;;;180.57;94.13;;;;;;;16.21;42.24;93313.53;4920752;29;20056;-91
2023/01/26 09:50:01;;;;;;;207.07;97.45;;;;;;;16.15;42.54;93310.06;4915769;28;20050;-91
2023/01/26 09:52:29;;;;;;;211.50;100.50;;;;;;;16.18;42.60;93314.53;4939153;29;20043;-93
2023/01/26 09:54:57;;;;;;;233.43;114.32;;;;;;;16.21;42.62;93306.09;4940965;29;20051;-89
2023/01/26 09:57:34;;;;;;;315.00;143.68;;;;;;;16.20;42.26;93307.34;4931548;28;20055;-91
2023/01/26 10:00:08;;;;;;;282.35;137.38;;;;;;;16.22;42.40;93306.84;4937032;29;20047;-91
2023/01/26 10:03:02;;;;;;;193.88;98.00;;;;;;;16.19;42.27;93302.38;4938436;29;20078;-91
2023/01/26 10:05:37;;;;;;;357.80;171.32;;;;;;;16.22;42.92;93295.94;4954752;28;20053;-93
2023/01/26 10:08:11;;;;;;;229.77;116.85;;;;;;;16.25;42.43;93300.34;4934031;28;20047;-89
2023/01/26 10:10:38;;;;;;;241.57;118.28;;;;;;;16.20;42.21;93299.16;4920276;29;20043;-91
2023/01/26 10:13:03;;;;;;;217.70;99.50;;;;;;;16.05;41.64;93299.41;4932540;28;20438;-91
2023/01/26 10:15:34;;;;;;;216.90;98.47;;;;;;;16.04;41.31;93292.47;4942861;28;20225;-90
2023/01/26 10:18:02;;;;;;;186.93;89.95;;;;;;;16.09;40.45;93299.16;4940369;28;20042;-90
2023/01/26 10:20:31;;;;;;;190.13;92.00;;;;;;;16.05;40.78;93299.41;4958453;28;20042;-93
2023/01/26 10:23:04;;;;;;;204.23;98.57;;;;;;;16.14;40.95;93300.38;4959649;28;20045;-92
2023/01/26 10:25:34;;;;;;;262.42;129.57;;;;;;;16.10;41.37;93301.38;4931344;28;20708;-92
2023/01/26 10:28:13;;;;;;;258.20;130.88;;;;;;;16.11;41.70;93296.69;4954485;28;20046;-93
2023/01/26 10:30:40;;;;;;;291.83;149.38;;;;;;;16.14;42.13;93286.75;4944790;28;20038;-90
2023/01/26 10:33:13;;;;;;;279.58;138.32;;;;;;;16.21;41.94;93297.16;4941406;28;20094;-90
2023/01/26 10:35:39;;;;;;;235.55;118.90;;;;;;;16.18;42.15;93296.19;4954597;28;20053;-91
2023/01/26 10:38:33;;;;;;;225.43;108.88;;;;;;;16.10;41.17;93285.03;4937623;28;20051;-89
2023/01/26 10:41:06;;;;;;;192.60;95.28;;;;;;;16.06;40.48;93289.25;4960538;28;20121;-92
2023/01/26 10:43:34;;;;;;;208.80;98.03;;;;;;;16.15;41.04;93285.53;4939179;28;20066;-91
2023/01/26 10:45:59;;;;;;;241.63;104.53;;;;;;;16.11;41.27;93286.50;4938262;28;20125;-91
2023/01/26 10:48:25;;;;;;;228.65;89.88;;;;;;;16.00;40.44;93280.34;4935476;28;20030;-92
2023/01/26 10:50:51;;;;;;;212.93;88.30;;;;;;;15.95;40.39;93272.91;4934456;28;20176;-88
2023/01/26 10:53:23;;;;;;;175.93;82.47;;;;;;;15.95;40.23;93279.09;4926766;28;20047;-91
2023/01/26 10:55:59;;;;;;;171.60;84.90;;;;;;;15.99;40.84;93273.41;4944023;28;20058;-90
2023/01/26 10:58:36;;;;;;;179.25;91.35;;;;;;;16.02;41.02;93278.59;4951034;28;20053;-89
2023/01/26 11:01:01;;;;;;;230.40;84.10;;;;;;;16.05;41.73;93280.31;4944947;28;20042;-91
2023/01/26 11:03:29;;;;;;;208.10;95.22;;;;;;;16.11;42.28;93275.59;4913304;28;20046;-90
2023/01/26 11:06:12;;;;;;;215.25;102.75;;;;;;;16.02;42.29;93264.94;4947523;28;20040;-91
2023/01/26 11:08:40;;;;;;;208.05;92.55;;;;;;;16.00;42.25;93258.53;4966874;28;20039;-89
2023/01/26 11:11:09;;;;;;;204.85;102.38;;;;;;;16.02;42.68;93270.41;4935874;28;20069;-87
2023/01/26 11:13:34;;;;;;;200.00;98.00;;;;;;;16.02;42.56;93267.69;4949103;28;20049;-89
2023/01/26 11:16:22;;;;;;;161.30;84.68;;;;;;;16.12;42.20;93259.97;4948147;28;20047;-88
2023/01/26 11:18:57;;;;;;;194.70;98.07;;;;;;;16.11;42.67;93267.44;4949010;28;20308;-90
2023/01/26 11:21:30;;;;;;;177.38;90.60;;;;;;;16.04;42.35;93253.53;4970044;28;20490;-88
2023/01/26 11:24:03;;;;;;;127.80;56.35;;;;;;;15.93;39.70;93264.47;4953710;28;20039;-91
2023/01/26 11:26:44;;;;;;;120.30;55.08;;;;;;;15.90;39.87;93255.31;4951756;28;20051;-88
2023/01/26 11:29:28;;;;;;;108.13;52.03;;;;;;;15.92;39.87;93252.09;4966698;28;20047;-90
2023/01/26 11:32:23;;;;;;;107.50;52.58;;;;;;;15.98;40.57;93239.94;4959856;28;20414;-90
2023/01/26 11:34:55;;;;;;;120.75;60.67;;;;;;;15.96;41.40;93234.25;4935248;28;20171;-89
2023/01/26 11:37:42;;;;;;;131.45;69.38;;;;;;;15.99;42.28;93244.16;4962697;28;20086;-89
2023/01/26 11:40:10;;;;;;;132.90;70.55;;;;;;;16.01;42.81;93238.94;4969970;28;20498;-89
2023/01/26 11:42:49;;;;;;;80.80;43.30;;;;;;;15.85;40.19;93244.41;4960767;28;20047;-92
2023/01/26 11:45:50;;;;;;;80.38;45.55;;;;;;;15.85;41.02;93228.81;4940164;28;20043;-90
2023/01/26 11:48:24;;;;;;;88.55;46.47;;;;;;;15.94;40.47;93233.25;4967911;28;20047;-91
2023/01/26 11:50:55;;;;;;;93.75;49.67;;;;;;;15.97;40.84;93226.81;4969005;28;20055;-89
2023/01/26 11:53:27;;;;;;;91.90;53.20;;;;;;;15.98;41.96;93231.78;4937308;28;20039;-91
2023/01/26 11:56:08;;;;;;;91.60;47.92;;;;;;;16.06;41.81;93230.00;4969430;28;20110;-91
2023/01/26 11:58:53;;;;;;;97.78;52.17;;;;;;;16.03;42.48;93217.34;4967511;28;20043;-87
2023/01/26 12:01:27;;;;;;;88.75;46.33;;;;;;;16.09;42.18;93212.63;4947826;28;20047;-90
2023/01/26 12:03:53;;;;;;;110.97;49.75;;;;;;;16.14;41.95;93215.84;4940880;28;20039;-91
2023/01/26 12:06:25;;;;;;;104.68;54.95;;;;;;;16.16;42.22;93213.38;4946618;28;20198;-88